createdAt,value
2018-10-19T00:00:55.664Z,97758.19
2018-10-19T00:03:24.316Z,97762.47
2018-10-19T00:05:52.888Z,97765.02
2018-10-19T00:08:21.484Z,97757.75
2018-10-19T00:10:50.161Z,97758.35
2018-10-19T00:13:18.767Z,97759.86
2018-10-19T00:15:47.435Z,97756.87
2018-10-19T00:18:16.268Z,97754.67
2018-10-19T00:20:44.924Z,97755.11
2018-10-19T00:23:13.829Z,97754.23
2018-10-19T00:25:42.524Z,97762.03
2018-10-19T00:28:11.104Z,97755.39
2018-10-19T00:30:39.714Z,97751.45
2018-10-19T00:33:08.459Z,97747.67
2018-10-19T00:35:36.992Z,97749.14
2018-10-19T00:38:06.023Z,97747.07
2018-10-19T00:40:34.972Z,97753.30
2018-10-19T00:43:03.656Z,97759.24
2018-10-19T00:45:37.472Z,97762.27
2018-10-19T00:48:11.096Z,97759.27
2018-10-19T00:50:40.797Z,97756.22
2018-10-19T00:53:10.187Z,97764.17
2018-10-19T00:55:40.968Z,97763.47
2018-10-19T00:58:10.056Z,97760.83
2018-10-19T01:00:42.871Z,97751.87
2018-10-19T01:03:11.998Z,97746.13
2018-10-19T01:05:41.435Z,97743.79
2018-10-19T01:08:10.839Z,97742.69
2018-10-19T01:10:39.449Z,97739.30
2018-10-19T01:13:08.067Z,97739.88
2018-10-19T01:15:36.683Z,97743.38
2018-10-19T01:18:05.324Z,97743.61
2018-10-19T01:20:33.943Z,97741.78
2018-10-19T01:23:02.651Z,97741.20
2018-10-19T01:25:31.232Z,97742.48
2018-10-19T01:27:59.804Z,97739.70
2018-10-19T01:30:28.428Z,97736.19
2018-10-19T01:32:57.011Z,97733.64
2018-10-19T01:35:25.591Z,97742.50
2018-10-19T01:37:54.496Z,97740.98
2018-10-19T01:40:23.088Z,97736.02
2018-10-19T01:42:51.758Z,97736.50
2018-10-19T01:45:20.367Z,97733.14
2018-10-19T01:47:48.961Z,97729.40
2018-10-19T01:50:17.560Z,97727.29
2018-10-19T01:52:46.258Z,97728.23
2018-10-19T01:55:14.847Z,97728.23
2018-10-19T01:57:43.440Z,97727.31
2018-10-19T02:00:12.106Z,97724.59
2018-10-19T02:02:40.689Z,97730.13
2018-10-19T02:05:09.491Z,97728.50
2018-10-19T02:07:38.156Z,97724.42
2018-10-19T02:10:07.418Z,97725.70
2018-10-19T02:12:36.067Z,97727.98
2018-10-19T02:15:04.765Z,97726.98
2018-10-19T02:17:33.350Z,97724.08
2018-10-19T02:20:01.941Z,97723.24
2018-10-19T02:22:30.572Z,97722.36
2018-10-19T02:24:59.174Z,97725.80
2018-10-19T02:27:27.875Z,97721.53
2018-10-19T02:29:56.564Z,97723.69
2018-10-19T02:32:25.152Z,97724.34
2018-10-19T02:34:53.780Z,97718.10
2018-10-19T02:37:22.388Z,97719.91
2018-10-19T02:39:50.954Z,97711.12
2018-10-19T02:42:19.574Z,97720.77
2018-10-19T02:44:48.208Z,97724.46
2018-10-19T02:47:16.800Z,97728.56
2018-10-19T02:49:45.364Z,97735.10
2018-10-19T02:52:13.973Z,97726.05
2018-10-19T02:54:42.547Z,97723.20
2018-10-19T02:57:11.149Z,97726.38
2018-10-19T02:59:39.739Z,97725.81
2018-10-19T03:02:08.337Z,97733.31
2018-10-19T03:04:36.895Z,97731.78
2018-10-19T03:07:06.496Z,97730.84
2018-10-19T03:09:35.132Z,97729.05
2018-10-19T03:12:03.716Z,97730.29
2018-10-19T03:14:32.396Z,97728.53
2018-10-19T03:17:00.977Z,97724.72
2018-10-19T03:19:30.516Z,97721.78
2018-10-19T03:21:59.183Z,97725.28
2018-10-19T03:24:27.782Z,97719.39
2018-10-19T03:26:56.401Z,97724.30
2018-10-19T03:29:24.986Z,97721.62
2018-10-19T03:31:53.588Z,97720.45
2018-10-19T03:34:22.186Z,97723.73
2018-10-19T03:36:50.872Z,97726.09
2018-10-19T03:39:19.617Z,97730.62
2018-10-19T03:41:48.144Z,97722.55
2018-10-19T03:44:16.827Z,97716.98
2018-10-19T03:46:45.391Z,97723.14
2018-10-19T03:49:14.037Z,97720.05
2018-10-19T03:51:42.923Z,97723.47
2018-10-19T03:54:11.512Z,97735.03
2018-10-19T03:56:40.092Z,97734.20
2018-10-19T03:59:09.057Z,97737.57
2018-10-19T04:01:37.612Z,97735.30
2018-10-19T04:04:06.225Z,97739.99
2018-10-19T04:06:34.876Z,97740.88
2018-10-19T04:09:03.696Z,97738.02
2018-10-19T04:11:32.227Z,97734.00
2018-10-19T04:14:00.857Z,97731.37
2018-10-19T04:16:29.436Z,97732.64
2018-10-19T04:18:58.020Z,97734.19
2018-10-19T04:21:26.695Z,97730.25
2018-10-19T04:23:55.272Z,97738.95
2018-10-19T04:26:23.871Z,97740.94
2018-10-19T04:28:52.764Z,97744.59
2018-10-19T04:31:21.323Z,97744.52
2018-10-19T04:33:49.912Z,97739.83
2018-10-19T04:36:18.600Z,97741.73
2018-10-19T04:38:47.184Z,97746.46
2018-10-19T04:41:15.855Z,97745.03
2018-10-19T04:43:44.424Z,97750.00
2018-10-19T04:46:13.192Z,97748.22
2018-10-19T04:48:41.756Z,97750.83
2018-10-19T04:51:10.505Z,97757.86
2018-10-19T04:53:39.152Z,97754.32
2018-10-19T04:56:07.623Z,97757.67
2018-10-19T04:58:36.232Z,97765.05
2018-10-19T05:01:04.945Z,97760.42
2018-10-19T05:03:33.504Z,97755.95
2018-10-19T05:06:02.242Z,97762.34
2018-10-19T05:08:30.697Z,97763.07
2018-10-19T05:10:59.309Z,97767.43
2018-10-19T05:13:28.056Z,97767.14
2018-10-19T05:15:56.657Z,97771.96
2018-10-19T05:18:25.295Z,97773.05
2018-10-19T05:20:54.022Z,97774.82
2018-10-19T05:23:22.588Z,97774.42
2018-10-19T05:25:51.171Z,97779.80
2018-10-19T05:28:19.776Z,97776.93
2018-10-19T05:30:48.368Z,97779.62
2018-10-19T05:33:16.935Z,97775.27
2018-10-19T05:35:45.620Z,97783.32
2018-10-19T05:38:14.261Z,97780.56
2018-10-19T05:40:42.779Z,97780.63
2018-10-19T05:43:11.392Z,97787.20
2018-10-19T05:45:39.955Z,97786.16
2018-10-19T05:48:08.542Z,97792.94
2018-10-19T05:50:37.199Z,97796.75
2018-10-19T05:53:06.341Z,97797.03
2018-10-19T05:55:34.964Z,97793.27
2018-10-19T05:58:03.669Z,97797.91
2018-10-19T06:00:32.259Z,97798.31
2018-10-19T06:03:00.840Z,97800.56
2018-10-19T06:05:29.439Z,97803.61
2018-10-19T06:07:58.045Z,97808.15
2018-10-19T06:10:26.603Z,97809.23
2018-10-19T06:12:55.438Z,97808.86
2018-10-19T06:15:24.029Z,97813.25
2018-10-19T06:17:52.604Z,97814.73
2018-10-19T06:20:21.283Z,97816.98
2018-10-19T06:22:49.839Z,97826.39
2018-10-19T06:25:18.469Z,97827.81
2018-10-19T06:27:47.145Z,97826.39
2018-10-19T06:30:15.708Z,97830.49
2018-10-19T06:32:44.283Z,97831.05
2018-10-19T06:35:13.052Z,97838.88
2018-10-19T06:37:41.567Z,97841.58
2018-10-19T06:40:10.132Z,97846.41
2018-10-19T06:42:38.740Z,97849.20
2018-10-19T06:45:07.592Z,97850.00
2018-10-19T06:47:36.213Z,97846.19
2018-10-19T06:50:06.668Z,97851.70
2018-10-19T06:52:35.205Z,97846.55
2018-10-19T06:55:03.807Z,97853.02
2018-10-19T06:57:32.609Z,97859.95
2018-10-19T07:00:01.172Z,97862.41
2018-10-19T07:02:29.748Z,97868.27
2018-10-19T07:04:58.537Z,97866.73
2018-10-19T07:07:27.104Z,97859.75
2018-10-19T07:09:55.678Z,97860.28
2018-10-19T07:12:24.376Z,97866.89
2018-10-19T07:14:52.982Z,97868.42
2018-10-19T07:17:21.552Z,97871.48
2018-10-19T07:19:50.147Z,97874.12
2018-10-19T07:22:18.728Z,97874.84
2018-10-19T07:24:47.318Z,97878.14
2018-10-19T07:27:15.964Z,97877.38
2018-10-19T07:29:44.552Z,97882.70
2018-10-19T07:32:13.175Z,97887.34
2018-10-19T07:34:42.123Z,97885.84
2018-10-19T07:37:10.839Z,97886.86
2018-10-19T07:39:39.428Z,97885.66
2018-10-19T07:42:08.130Z,97882.68
2018-10-19T07:44:36.632Z,97883.77
2018-10-19T07:47:05.718Z,97887.26
2018-10-19T07:49:34.405Z,97890.92
2018-10-19T07:52:03.011Z,97885.59
2018-10-19T07:54:31.643Z,97881.98
2018-10-19T07:57:00.190Z,97890.57
2018-10-19T07:59:28.796Z,97890.55
2018-10-19T08:01:57.427Z,97893.09
2018-10-19T08:04:26.091Z,97887.13
2018-10-19T08:06:54.707Z,97892.14
2018-10-19T08:09:23.327Z,97896.76
2018-10-19T08:11:51.927Z,97896.13
2018-10-19T08:14:20.804Z,97886.89
2018-10-19T08:16:49.388Z,97895.00
2018-10-19T08:19:17.991Z,97889.64
2018-10-19T08:21:46.571Z,97892.95
2018-10-19T08:24:15.160Z,97896.14
2018-10-19T08:26:43.845Z,97899.52
2018-10-19T08:29:12.438Z,97899.39
2018-10-19T08:31:41.015Z,97895.78
2018-10-19T08:34:09.698Z,97893.87
2018-10-19T08:36:38.275Z,97894.13
2018-10-19T08:39:08.556Z,97897.18
2018-10-19T08:41:37.223Z,97892.89
2018-10-19T08:44:05.796Z,97898.95
2018-10-19T08:46:38.140Z,97895.88
2018-10-19T08:49:09.146Z,97899.58
2018-10-19T08:51:38.356Z,97895.98
2018-10-19T08:54:07.099Z,97900.29
2018-10-19T08:56:35.699Z,97903.38
2018-10-19T08:59:04.561Z,97908.22
2018-10-19T09:01:33.157Z,97907.09
2018-10-19T09:04:01.777Z,97900.05
2018-10-19T09:06:30.451Z,97910.31
2018-10-19T09:08:59.073Z,97901.76
2018-10-19T09:11:27.755Z,97900.86
2018-10-19T09:13:56.272Z,97904.86
2018-10-19T09:16:24.879Z,97906.34
2018-10-19T09:18:53.456Z,97906.34
2018-10-19T09:21:22.107Z,97902.64
2018-10-19T09:23:50.679Z,97899.53
2018-10-19T09:26:19.286Z,97897.14
2018-10-19T09:28:47.912Z,97898.93
2018-10-19T09:31:16.516Z,97903.09
2018-10-19T09:33:45.089Z,97908.11
2018-10-19T09:36:13.891Z,97902.09
2018-10-19T09:38:42.387Z,97905.51
2018-10-19T09:41:11.051Z,97910.05
2018-10-19T09:43:39.635Z,97899.81
2018-10-19T09:46:08.226Z,97904.91
2018-10-19T09:48:36.804Z,97901.42
2018-10-19T09:51:05.949Z,97898.61
2018-10-19T09:53:34.482Z,97900.55
2018-10-19T09:56:03.088Z,97901.13
2018-10-19T09:58:31.789Z,97900.89
2018-10-19T10:01:00.396Z,97901.23
2018-10-19T10:03:28.960Z,97903.21
2018-10-19T10:05:57.575Z,97903.69
2018-10-19T10:08:26.163Z,97900.27
2018-10-19T10:10:54.773Z,97900.95
2018-10-19T10:13:23.456Z,97900.13
2018-10-19T10:15:52.073Z,97910.17
2018-10-19T10:18:20.651Z,97906.16
2018-10-19T10:20:49.323Z,97903.13
2018-10-19T10:23:17.893Z,97903.39
2018-10-19T10:25:46.484Z,97894.67
2018-10-19T10:28:15.209Z,97899.53
2018-10-19T10:30:43.820Z,97901.05
2018-10-19T10:33:12.505Z,97906.28
2018-10-19T10:35:41.116Z,97902.42
2018-10-19T10:38:09.704Z,97900.25
2018-10-19T10:40:38.288Z,97900.30
2018-10-19T10:43:07.040Z,97898.11
2018-10-19T10:45:35.706Z,97897.16
2018-10-19T10:48:04.296Z,97892.86
2018-10-19T10:50:32.928Z,97885.22
2018-10-19T10:53:01.499Z,97885.11
2018-10-19T10:55:30.145Z,97885.19
2018-10-19T10:57:58.754Z,97884.55
2018-10-19T11:00:27.338Z,97885.76
2018-10-19T11:02:55.912Z,97882.92
2018-10-19T11:05:24.600Z,97882.81
2018-10-19T11:07:53.181Z,97881.17
2018-10-19T11:10:21.752Z,97877.13
2018-10-19T11:12:50.708Z,97880.53
2018-10-19T11:15:19.272Z,97879.08
2018-10-19T11:17:47.865Z,97873.25
2018-10-19T11:20:16.644Z,97869.45
2018-10-19T11:22:45.243Z,97858.00
2018-10-19T11:25:13.937Z,97865.54
2018-10-19T11:27:42.855Z,97858.20
2018-10-19T11:30:11.450Z,97858.61
2018-10-19T11:32:40.044Z,97853.36
2018-10-19T11:35:09.163Z,97853.81
2018-10-19T11:37:37.854Z,97853.55
2018-10-19T11:40:40.355Z,97851.47
2018-10-19T11:43:09.179Z,97851.73
2018-10-19T11:45:38.896Z,97852.06
2018-10-19T11:48:07.588Z,97849.92
2018-10-19T11:50:36.167Z,97846.50
2018-10-19T11:53:05.148Z,97848.39
2018-10-19T11:55:33.768Z,97847.45
2018-10-19T11:58:02.406Z,97841.54
2018-10-19T12:00:30.940Z,97842.31
2018-10-19T12:02:59.896Z,97836.83
2018-10-19T12:05:28.487Z,97832.94
2018-10-19T12:07:57.071Z,97831.63
2018-10-19T12:10:25.861Z,97833.60
2018-10-19T12:12:54.657Z,97832.41
2018-10-19T12:15:23.250Z,97833.09
2018-10-19T12:17:52.068Z,97828.13
2018-10-19T12:20:22.688Z,97825.41
2018-10-19T12:22:51.435Z,97825.67
2018-10-19T12:25:20.180Z,97822.86
2018-10-19T12:27:48.766Z,97817.34
2018-10-19T12:30:17.729Z,97817.84
2018-10-19T12:32:46.301Z,97813.69
2018-10-19T12:35:15.431Z,97810.35
2018-10-19T12:37:44.360Z,97813.90
2018-10-19T12:40:13.135Z,97811.88
2018-10-19T12:42:41.770Z,97814.97
2018-10-19T12:45:24.507Z,97810.10
2018-10-19T12:47:53.089Z,97813.63
2018-10-19T12:50:21.676Z,97810.39
2018-10-19T12:52:50.312Z,97816.88
2018-10-19T12:55:18.916Z,97808.79
2018-10-19T12:57:47.504Z,97809.11
2018-10-19T13:00:16.142Z,97813.31
2018-10-19T13:02:44.896Z,97813.16
2018-10-19T13:05:13.495Z,97816.06
2018-10-19T13:07:42.330Z,97807.77
2018-10-19T13:10:11.051Z,97811.87
2018-10-19T13:12:39.744Z,97818.05
2018-10-19T13:15:08.514Z,97816.62
2018-10-19T13:17:37.008Z,97815.05
2018-10-19T13:20:05.588Z,97811.88
2018-10-19T13:22:34.568Z,97812.83
2018-10-19T13:25:03.164Z,97813.14
2018-10-19T13:27:31.756Z,97811.85
2018-10-19T13:30:00.500Z,97816.64
2018-10-19T13:32:28.962Z,97815.13
2018-10-19T13:34:57.723Z,97813.54
2018-10-19T13:37:26.345Z,97811.34
2018-10-19T13:39:54.920Z,97809.48
2018-10-19T13:42:23.520Z,97809.59
2018-10-19T13:44:52.194Z,97807.45
2018-10-19T13:47:20.760Z,97806.42
2018-10-19T13:49:49.345Z,97802.94
2018-10-19T13:52:18.046Z,97804.42
2018-10-19T13:54:46.580Z,97799.97
2018-10-19T13:57:15.198Z,97797.94
2018-10-19T13:59:43.867Z,97796.94
2018-10-19T14:02:12.419Z,97794.84
2018-10-19T14:04:41.015Z,97794.64
2018-10-19T14:07:09.731Z,97794.59
2018-10-19T14:09:38.308Z,97792.90
2018-10-19T14:12:06.892Z,97795.56
2018-10-19T14:14:35.849Z,97791.81
2018-10-19T14:17:04.802Z,97783.13
2018-10-19T14:19:33.327Z,97786.02
2018-10-19T14:22:01.960Z,97789.33
2018-10-19T14:24:30.528Z,97788.05
2018-10-19T14:26:59.119Z,97789.82
2018-10-19T14:29:27.927Z,97780.23
2018-10-19T14:31:56.503Z,97787.33
2018-10-19T14:34:25.088Z,97788.28
2018-10-19T14:36:53.684Z,97787.80
2018-10-19T14:39:22.272Z,97793.91
2018-10-19T14:41:50.876Z,97788.94
2018-10-19T14:44:19.599Z,97786.25
2018-10-19T14:46:48.213Z,97790.40
2018-10-19T14:49:16.811Z,97789.57
2018-10-19T14:51:45.456Z,97799.11
2018-10-19T14:54:14.060Z,97793.34
2018-10-19T14:56:42.667Z,97796.38
2018-10-19T14:59:11.704Z,97791.74
2018-10-19T15:01:40.259Z,97797.20
2018-10-19T15:04:09.285Z,97792.69
2018-10-19T15:06:38.178Z,97799.56
2018-10-19T15:09:09.786Z,97793.34
2018-10-19T15:11:38.618Z,97795.66
2018-10-19T15:14:06.991Z,97794.38
2018-10-19T15:16:35.612Z,97795.71
2018-10-19T15:19:04.265Z,97792.77
2018-10-19T15:21:32.850Z,97795.66
2018-10-19T15:24:01.643Z,97795.45
2018-10-19T15:26:30.354Z,97793.99
2018-10-19T15:28:58.935Z,97787.70
2018-10-19T15:31:27.524Z,97789.63
2018-10-19T15:33:56.168Z,97794.77
2018-10-19T15:36:24.764Z,97800.10
2018-10-19T15:38:53.360Z,97811.30
2018-10-19T15:41:22.024Z,97804.98
2018-10-19T15:43:50.601Z,97799.38
2018-10-19T15:46:19.179Z,97798.75
2018-10-19T15:48:47.889Z,97798.12
2018-10-19T15:51:16.508Z,97802.80
2018-10-19T15:53:45.145Z,97808.34
2018-10-19T15:56:13.839Z,97810.19
2018-10-19T15:58:42.412Z,97805.78
2018-10-19T16:01:10.979Z,97806.09
2018-10-19T16:03:39.584Z,97808.52
2018-10-19T16:06:08.257Z,97812.57
2018-10-19T16:08:36.796Z,97816.53
2018-10-19T16:11:06.022Z,97819.14
2018-10-19T16:13:34.677Z,97819.75
2018-10-19T16:16:03.301Z,97819.55
2018-10-19T16:18:32.045Z,97824.16
2018-10-19T16:21:00.939Z,97823.51
2018-10-19T16:23:33.376Z,97827.09
2018-10-19T16:26:02.044Z,97823.61
2018-10-19T16:28:30.766Z,97823.91
2018-10-19T16:30:59.417Z,97825.55
2018-10-19T16:33:28.331Z,97825.91
2018-10-19T16:35:57.394Z,97832.78
2018-10-19T16:38:26.631Z,97828.39
2018-10-19T16:40:55.739Z,97826.55
2018-10-19T16:43:24.316Z,97830.13
2018-10-19T16:45:52.936Z,97830.38
2018-10-19T16:48:21.531Z,97832.41
2018-10-19T16:50:50.104Z,97832.96
2018-10-19T16:53:18.784Z,97832.41
2018-10-19T16:55:47.383Z,97838.54
2018-10-19T16:58:16.058Z,97846.69
2018-10-19T17:00:44.658Z,97840.19
2018-10-19T17:03:13.237Z,97847.22
2018-10-19T17:05:41.803Z,97846.40
2018-10-19T17:08:10.416Z,97850.32
2018-10-19T17:10:39.007Z,97855.11
2018-10-19T17:13:07.604Z,97852.58
2018-10-19T17:15:36.216Z,97862.52
2018-10-19T17:18:04.991Z,97863.29
2018-10-19T17:20:33.591Z,97870.30
2018-10-19T17:23:04.635Z,97870.65
2018-10-19T17:25:33.264Z,97873.99
2018-10-19T17:28:01.868Z,97877.20
2018-10-19T17:30:30.584Z,97875.75
2018-10-19T17:32:59.168Z,97881.72
2018-10-19T17:35:27.736Z,97879.83
2018-10-19T17:37:56.428Z,97878.05
2018-10-19T17:40:25.045Z,97884.26
2018-10-19T17:42:53.675Z,97888.45
2018-10-19T17:45:22.508Z,97892.84
2018-10-19T17:47:52.021Z,97891.94
2018-10-19T17:50:20.759Z,97888.05
2018-10-19T17:52:49.676Z,97893.70
2018-10-19T17:55:18.509Z,97896.27
2018-10-19T17:57:47.121Z,97891.77
2018-10-19T18:00:16.087Z,97897.27
2018-10-19T18:02:44.800Z,97900.27
2018-10-19T18:05:13.555Z,97900.21
2018-10-19T18:07:42.843Z,97904.95
2018-10-19T18:10:11.575Z,97896.76
2018-10-19T18:12:40.499Z,97900.21
2018-10-19T18:15:10.038Z,97898.03
2018-10-19T18:17:39.233Z,97898.58
2018-10-19T18:20:09.395Z,97896.63
2018-10-19T18:22:38.493Z,97895.59
2018-10-19T18:25:07.655Z,97898.16
2018-10-19T18:27:36.301Z,97897.19
2018-10-19T18:30:05.212Z,97899.55
2018-10-19T18:32:33.943Z,97903.86
2018-10-19T18:35:03.112Z,97901.30
2018-10-19T18:37:31.931Z,97906.64
2018-10-19T18:40:00.544Z,97913.92
2018-10-19T18:42:29.143Z,97912.36
2018-10-19T18:44:57.740Z,97918.75
2018-10-19T18:47:26.324Z,97918.30
2018-10-19T18:49:55.162Z,97918.15
2018-10-19T18:52:23.846Z,97920.03
2018-10-19T18:54:52.702Z,97916.42
2018-10-19T18:57:21.315Z,97921.98
2018-10-19T18:59:49.912Z,97923.71
2018-10-19T19:02:18.593Z,97923.95
2018-10-19T19:04:47.899Z,97931.62
2018-10-19T19:07:16.704Z,97939.45
2018-10-19T19:09:50.855Z,97945.75
2018-10-19T19:12:19.635Z,97949.53
2018-10-19T19:14:48.216Z,97942.01
2018-10-19T19:17:17.204Z,97948.39
2018-10-19T19:19:49.983Z,97953.42
2018-10-19T19:22:19.116Z,97955.77
2018-10-19T19:24:53.268Z,97960.08
2018-10-19T19:27:22.352Z,97963.42
2018-10-19T19:29:51.040Z,97973.99
2018-10-19T19:32:19.680Z,97973.81
2018-10-19T19:34:48.464Z,97969.48
2018-10-19T19:37:17.380Z,97973.89
2018-10-19T19:39:45.972Z,97985.52
2018-10-19T19:42:19.896Z,97986.66
2018-10-19T19:44:49.416Z,97982.70
2018-10-19T19:47:23.421Z,97976.84
2018-10-19T19:49:52.088Z,97993.16
2018-10-19T19:52:22.048Z,97992.77
2018-10-19T19:54:50.698Z,97986.44
2018-10-19T19:57:19.297Z,97995.38
2018-10-19T19:59:48.056Z,97996.87
2018-10-19T20:02:16.811Z,98002.25
2018-10-19T20:04:45.585Z,98001.20
2018-10-19T20:07:17.012Z,98001.69
2018-10-19T20:09:46.311Z,98007.23
2018-10-19T20:12:14.989Z,98003.10
2018-10-19T20:14:43.517Z,98006.70
2018-10-19T20:17:12.461Z,98013.71
2018-10-19T20:19:41.108Z,98011.91
2018-10-19T20:22:09.709Z,98011.69
2018-10-19T20:24:38.552Z,98016.48
2018-10-19T20:27:07.128Z,98019.69
2018-10-19T20:29:35.707Z,98016.52
2018-10-19T20:32:04.604Z,98019.50
2018-10-19T20:34:33.175Z,98020.78
2018-10-19T20:37:01.796Z,98017.49
2018-10-19T20:39:30.419Z,98021.00
2018-10-19T20:41:59.018Z,98017.00
2018-10-19T20:44:27.792Z,98023.67
2018-10-19T20:46:56.680Z,98025.55
2018-10-19T20:49:25.279Z,98028.80
2018-10-19T20:51:53.871Z,98024.66
2018-10-19T20:54:22.608Z,98034.78
2018-10-19T20:56:51.403Z,98035.34
2018-10-19T20:59:20.136Z,98035.59
2018-10-19T21:01:48.839Z,98034.44
2018-10-19T21:04:17.603Z,98032.84
2018-10-19T21:06:46.273Z,98028.67
2018-10-19T21:09:14.999Z,98031.10
2018-10-19T21:11:43.588Z,98037.59
2018-10-19T21:14:12.482Z,98034.21
2018-10-19T21:16:40.992Z,98034.73
2018-10-19T21:19:09.645Z,98042.05
2018-10-19T21:21:38.228Z,98044.25
2018-10-19T21:24:07.015Z,98049.42
2018-10-19T21:26:35.789Z,98043.56
2018-10-19T21:29:04.437Z,98043.24
2018-10-19T21:31:33.004Z,98048.38
2018-10-19T21:34:01.668Z,98042.97
2018-10-19T21:36:30.279Z,98043.00
2018-10-19T21:38:58.947Z,98043.16
2018-10-19T21:41:27.767Z,98044.62
2018-10-19T21:43:56.428Z,98042.70
2018-10-19T21:46:25.129Z,98046.52
2018-10-19T21:48:53.912Z,98045.36
2018-10-19T21:51:22.624Z,98046.12
2018-10-19T21:53:51.683Z,98041.53
2018-10-19T21:56:21.064Z,98046.23
2018-10-19T21:58:49.686Z,98039.55
2018-10-19T22:01:18.611Z,98039.34
2018-10-19T22:03:47.278Z,98038.62
2018-10-19T22:06:16.025Z,98043.05
2018-10-19T22:08:44.872Z,98040.30
2018-10-19T22:11:14.256Z,98038.30
2018-10-19T22:13:42.795Z,98038.41
2018-10-19T22:16:12.622Z,98040.20
2018-10-19T22:18:41.516Z,98045.83
2018-10-19T22:21:10.167Z,98042.67
2018-10-19T22:23:39.185Z,98045.28
2018-10-19T22:26:07.826Z,98042.02
2018-10-19T22:28:36.460Z,98044.55
2018-10-19T22:31:06.144Z,98053.64
2018-10-19T22:33:35.329Z,98050.63
2018-10-19T22:36:04.508Z,98055.72
2018-10-19T22:38:33.610Z,98054.95
2018-10-19T22:41:02.382Z,98050.47
2018-10-19T22:43:31.131Z,98054.29
2018-10-19T22:45:59.763Z,98053.12
2018-10-19T22:48:28.351Z,98056.61
2018-10-19T22:50:56.927Z,98056.82
2018-10-19T22:53:25.571Z,98056.92
2018-10-19T22:55:54.223Z,98068.47
2018-10-19T22:58:23.459Z,98066.77
2018-10-19T23:00:52.533Z,98066.87
2018-10-19T23:03:21.124Z,98072.93
2018-10-19T23:05:49.730Z,98068.55
2018-10-19T23:08:18.361Z,98073.34
2018-10-19T23:10:46.984Z,98075.34
2018-10-19T23:13:16.193Z,98075.01
2018-10-19T23:15:44.988Z,98077.55
2018-10-19T23:18:13.585Z,98079.82
2018-10-19T23:20:42.183Z,98079.12
2018-10-19T23:23:10.891Z,98075.06
2018-10-19T23:25:39.513Z,98074.80
2018-10-19T23:28:08.104Z,98067.11
2018-10-19T23:30:36.789Z,98066.30
2018-10-19T23:33:05.441Z,98071.48
2018-10-19T23:35:34.053Z,98071.41
2018-10-19T23:38:02.741Z,98071.91
2018-10-19T23:40:31.419Z,98068.04
2018-10-19T23:43:00.070Z,98066.83
2018-10-19T23:45:29.060Z,98073.31
2018-10-19T23:47:57.663Z,98065.52
2018-10-19T23:50:26.240Z,98063.59
2018-10-19T23:52:54.911Z,98065.48
2018-10-19T23:55:23.517Z,98067.75
2018-10-19T23:57:52.131Z,98066.58
